Time;durP1;ratioP1;P1;durP2;ratioP2;P2;SDS_P1;SDS_P2;PMS_P1;PMS_P2;Temp;Humidity;BMP_temperature;BMP_pressure;BME280_temperature;BME280_humidity;BME280_pressure;Samples;Min_cycle;Max_cycle;Signal;HPM_P1;HPM_P2
2021/01/18 00:02:13;;;;;;;43.58;19.55;;;4.10;97.60;;;;;;5081600;27;20047;-82
2021/01/18 00:04:39;;;;;;;45.42;19.80;;;4.10;97.70;;;;;;5083785;27;20024;-83
2021/01/18 00:07:05;;;;;;;40.83;17.33;;;4.10;97.70;;;;;;5106626;27;20027;-83
2021/01/18 00:09:31;;;;;;;35.35;11.25;;;4.10;97.50;;;;;;5080010;27;20559;-82
2021/01/18 00:11:56;;;;;;;39.78;15.60;;;4.10;97.60;;;;;;5094905;27;20110;-82
2021/01/18 00:14:23;;;;;;;28.70;12.75;;;4.10;97.60;;;;;;5084258;28;20080;-82
2021/01/18 00:16:49;;;;;;;33.30;11.93;;;4.10;97.90;;;;;;5078523;27;20050;-82
2021/01/18 00:19:15;;;;;;;31.27;11.32;;;4.10;97.60;;;;;;5089281;27;20042;-82
2021/01/18 00:21:47;;;;;;;25.27;10.50;;;4.10;97.70;;;;;;5085598;27;20027;-82
2021/01/18 00:24:12;;;;;;;27.33;11.88;;;4.10;97.50;;;;;;5079443;27;20035;-82
2021/01/18 00:26:38;;;;;;;11.00;6.20;;;4.20;97.60;;;;;;5098688;27;20528;-82
2021/01/18 00:29:04;;;;;;;36.05;13.93;;;4.20;97.60;;;;;;5089506;27;20039;-83
2021/01/18 00:31:29;;;;;;;35.72;13.57;;;4.10;97.80;;;;;;5098146;27;20030;-84
2021/01/18 00:33:55;;;;;;;31.27;14.60;;;4.10;97.80;;;;;;5086843;27;20046;-83
2021/01/18 00:36:20;;;;;;;27.58;12.80;;;4.00;98.00;;;;;;5100566;27;20035;-83
2021/01/18 00:38:46;;;;;;;27.30;14.68;;;4.10;97.90;;;;;;5087370;27;20028;-83
2021/01/18 00:41:11;;;;;;;34.08;14.02;;;4.10;98.10;;;;;;5091362;27;20619;-82
2021/01/18 00:43:37;;;;;;;35.05;16.27;;;4.00;98.10;;;;;;5092924;27;20031;-83
2021/01/18 00:46:03;;;;;;;35.22;15.55;;;4.00;98.20;;;;;;5075951;27;20034;-84
2021/01/18 00:48:28;;;;;;;24.92;12.48;;;4.10;98.10;;;;;;5091602;27;20028;-85
2021/01/18 00:50:54;;;;;;;29.55;14.88;;;4.10;98.00;;;;;;5091007;27;20041;-85
2021/01/18 00:53:19;;;;;;;30.15;12.77;;;4.10;97.90;;;;;;5091319;27;20039;-84
2021/01/18 00:55:45;;;;;;;29.38;12.38;;;4.10;97.80;;;;;;5086053;27;20031;-83
2021/01/18 00:58:11;;;;;;;38.13;15.20;;;4.20;97.90;;;;;;5089591;27;20039;-83
2021/01/18 01:00:38;;;;;;;28.42;12.85;;;4.10;97.80;;;;;;5079849;27;20096;-84
2021/01/18 01:03:04;;;;;;;31.75;14.52;;;4.10;97.70;;;;;;5084887;27;20031;-84
2021/01/18 01:05:30;;;;;;;34.25;14.52;;;4.10;98.00;;;;;;5011970;27;20080;-84
2021/01/18 01:07:57;;;;;;;38.33;15.93;;;4.10;97.80;;;;;;5046237;27;20027;-84
2021/01/18 01:10:24;;;;;;;25.30;12.27;;;4.10;97.60;;;;;;5094183;27;20072;-83
2021/01/18 01:12:56;;;;;;;31.80;12.05;;;4.10;97.70;;;;;;5106041;27;20023;-83
2021/01/18 01:15:22;;;;;;;37.28;14.90;;;4.10;97.60;;;;;;5096320;27;20391;-83
2021/01/18 01:17:48;;;;;;;25.90;12.48;;;4.10;97.80;;;;;;5093230;27;20030;-83
2021/01/18 01:20:14;;;;;;;34.20;13.48;;;4.10;97.90;;;;;;5089269;27;20035;-83
2021/01/18 01:22:40;;;;;;;30.27;12.57;;;4.00;97.80;;;;;;5091435;27;20035;-82
2021/01/18 01:25:07;;;;;;;31.30;12.68;;;4.10;97.80;;;;;;5076732;27;20417;-83
2021/01/18 01:27:32;;;;;;;24.60;11.82;;;4.10;97.70;;;;;;5111233;27;20032;-83
2021/01/18 01:29:58;;;;;;;21.27;11.05;;;4.10;97.70;;;;;;5093580;27;20027;-83
2021/01/18 01:32:24;;;;;;;23.98;10.50;;;4.10;97.70;;;;;;5083117;27;20037;-83
2021/01/18 01:34:49;;;;;;;24.52;11.95;;;4.10;97.80;;;;;;5101963;27;20047;-83
2021/01/18 01:37:15;;;;;;;25.70;11.00;;;4.10;97.80;;;;;;5086366;28;20512;-83
2021/01/18 01:39:40;;;;;;;21.60;8.88;;;4.10;97.60;;;;;;5075814;27;20510;-83
2021/01/18 01:42:19;;;;;;;23.60;9.20;;;4.10;97.70;;;;;;5092870;27;20059;-83
2021/01/18 01:44:45;;;;;;;22.92;11.15;;;4.10;97.70;;;;;;5086872;27;20107;-84
2021/01/18 01:47:10;;;;;;;33.55;13.45;;;4.10;97.80;;;;;;5080370;27;20051;-85
2021/01/18 01:49:36;;;;;;;25.75;10.73;;;4.10;97.90;;;;;;5091458;27;20106;-85
2021/01/18 01:52:01;;;;;;;21.95;9.70;;;4.10;97.90;;;;;;5100420;27;20028;-84
2021/01/18 01:54:27;;;;;;;23.20;11.70;;;4.10;97.90;;;;;;5086202;27;20053;-84
2021/01/18 01:56:54;;;;;;;38.83;10.82;;;4.10;97.70;;;;;;5093182;27;20027;-83
2021/01/18 01:59:20;;;;;;;22.65;11.13;;;4.10;97.80;;;;;;5087301;27;20100;-83
2021/01/18 02:01:45;;;;;;;17.95;9.05;;;4.10;97.70;;;;;;5082302;27;20027;-84
2021/01/18 02:04:11;;;;;;;15.60;8.23;;;4.10;97.60;;;;;;5091249;27;20483;-83
2021/01/18 02:06:36;;;;;;;31.20;9.48;;;4.10;97.70;;;;;;5088869;27;20406;-83
2021/01/18 02:09:02;;;;;;;32.30;12.38;;;4.00;97.80;;;;;;5085610;27;20037;-83
2021/01/18 02:11:27;;;;;;;30.15;11.70;;;4.00;97.90;;;;;;5073999;28;20089;-83
2021/01/18 02:13:53;;;;;;;24.67;9.75;;;4.00;98.00;;;;;;5083880;27;20031;-83
2021/01/18 02:16:27;;;;;;;22.67;8.75;;;4.00;97.80;;;;;;5128583;27;20389;-84
2021/01/18 02:19:12;;;;;;;20.08;10.43;;;4.00;97.70;;;;;;5093261;27;20035;-84
2021/01/18 02:22:04;;;;;;;18.75;7.05;;;4.00;97.80;;;;;;5106813;27;20039;-84
2021/01/18 02:24:55;;;;;;;21.98;8.90;;;4.00;98.20;;;;;;5092813;27;20055;-83
2021/01/18 02:27:45;;;;;;;19.13;8.35;;;4.00;97.90;;;;;;5091093;27;20494;-84
2021/01/18 02:30:29;;;;;;;14.02;6.53;;;4.00;97.90;;;;;;5110775;27;20159;-83
2021/01/18 02:33:19;;;;;;;14.43;7.03;;;4.00;97.90;;;;;;5103016;27;20023;-82
2021/01/18 02:36:14;;;;;;;18.77;9.38;;;3.90;98.00;;;;;;5124929;27;20507;-82
2021/01/18 02:38:55;;;;;;;24.80;11.23;;;3.90;97.90;;;;;;5083621;28;20386;-82
2021/01/18 02:41:45;;;;;;;18.50;8.48;;;3.90;98.00;;;;;;5084938;28;20034;-83
2021/01/18 02:44:20;;;;;;;19.08;10.73;;;3.90;98.00;;;;;;5079685;28;20401;-82
2021/01/18 02:46:47;;;;;;;24.75;11.43;;;3.90;97.90;;;;;;5074738;28;20031;-82
2021/01/18 02:49:12;;;;;;;34.42;14.23;;;3.90;97.80;;;;;;5077475;27;20034;-83
2021/01/18 02:51:43;;;;;;;29.35;11.02;;;3.90;97.80;;;;;;5090780;28;20542;-83
2021/01/18 02:54:09;;;;;;;39.63;15.93;;;3.90;97.90;;;;;;5074401;28;20036;-82
2021/01/18 02:56:34;;;;;;;17.08;7.03;;;3.90;98.00;;;;;;5075915;27;20088;-83
2021/01/18 02:59:01;;;;;;;35.25;14.43;;;3.90;97.90;;;;;;5090955;27;20378;-82
2021/01/18 03:01:35;;;;;;;31.17;13.13;;;3.90;97.70;;;;;;5079771;27;20027;-82
2021/01/18 03:04:07;;;;;;;21.73;9.80;;;3.90;97.80;;;;;;5128844;27;20515;-83
2021/01/18 03:07:00;;;;;;;15.02;6.40;;;3.90;97.80;;;;;;5075504;27;20114;-84
2021/01/18 03:09:35;;;;;;;20.65;7.97;;;4.00;97.80;;;;;;5116468;27;20031;-82
2021/01/18 03:12:05;;;;;;;34.92;15.98;;;3.90;97.90;;;;;;5097809;27;20098;-82
2021/01/18 03:14:35;;;;;;;30.52;13.38;;;3.90;97.90;;;;;;5079876;27;20024;-83
2021/01/18 03:17:00;;;;;;;18.45;9.18;;;3.90;98.00;;;;;;5087930;27;20031;-83
2021/01/18 03:19:42;;;;;;;38.25;16.00;;;3.90;97.80;;;;;;5082246;27;20035;-83
2021/01/18 03:22:20;;;;;;;13.00;7.80;;;3.90;98.00;;;;;;5075801;27;20475;-84
2021/01/18 03:24:46;;;;;;;16.92;7.60;;;3.80;98.00;;;;;;5093526;27;20035;-83
2021/01/18 03:27:12;;;;;;;17.65;8.98;;;3.90;98.10;;;;;;5077532;27;20042;-83
2021/01/18 03:29:37;;;;;;;23.05;8.60;;;3.90;98.10;;;;;;5095852;27;20558;-84
2021/01/18 03:32:03;;;;;;;8.38;5.38;;;3.90;98.10;;;;;;5078795;27;20024;-84
2021/01/18 03:34:29;;;;;;;11.38;6.30;;;3.90;98.10;;;;;;5091271;27;20058;-84
2021/01/18 03:36:54;;;;;;;12.32;7.75;;;3.90;98.10;;;;;;5095458;27;20038;-83
2021/01/18 03:39:20;;;;;;;11.68;6.55;;;3.90;98.10;;;;;;5086047;28;20114;-84
2021/01/18 03:41:46;;;;;;;24.85;10.98;;;3.90;98.30;;;;;;5078178;27;20110;-83
2021/01/18 03:44:12;;;;;;;15.68;7.78;;;3.90;98.20;;;;;;5088054;28;20089;-84
2021/01/18 03:46:37;;;;;;;13.70;7.20;;;3.90;98.30;;;;;;5068540;27;20032;-83
2021/01/18 03:49:03;;;;;;;11.48;5.70;;;3.90;98.20;;;;;;5075046;28;20073;-83
2021/01/18 03:51:29;;;;;;;13.73;7.20;;;3.90;98.20;;;;;;5080030;27;20428;-83
2021/01/18 03:53:56;;;;;;;30.02;13.02;;;3.80;98.20;;;;;;5079457;27;20118;-83
2021/01/18 03:56:22;;;;;;;27.65;14.98;;;3.80;98.20;;;;;;5111809;27;20530;-83
2021/01/18 03:58:47;;;;;;;29.85;16.45;;;3.80;98.30;;;;;;5079886;27;20156;-84
2021/01/18 04:01:13;;;;;;;27.02;9.40;;;3.80;98.40;;;;;;5085550;27;20055;-83
2021/01/18 04:03:38;;;;;;;22.00;10.23;;;3.80;98.30;;;;;;5111681;27;20093;-83
2021/01/18 04:06:04;;;;;;;17.60;7.90;;;3.80;98.20;;;;;;5095875;27;20073;-83
2021/01/18 04:08:30;;;;;;;38.38;16.30;;;3.80;98.30;;;;;;5109232;28;20028;-83
2021/01/18 04:10:55;;;;;;;31.25;14.40;;;3.80;98.50;;;;;;5077949;27;20486;-83
2021/01/18 04:13:28;;;;;;;22.52;11.25;;;3.80;98.40;;;;;;5075780;28;20051;-83
2021/01/18 04:15:53;;;;;;;31.83;16.77;;;3.80;98.50;;;;;;5107032;27;20019;-83
2021/01/18 04:18:19;;;;;;;46.20;20.13;;;3.80;98.50;;;;;;5078187;28;20034;-83
2021/01/18 04:20:45;;;;;;;34.17;15.48;;;3.80;98.50;;;;;;5076057;28;20040;-84
2021/01/18 04:23:10;;;;;;;29.73;16.00;;;3.80;98.50;;;;;;5071142;27;20378;-83
2021/01/18 04:25:36;;;;;;;40.00;17.95;;;3.80;98.50;;;;;;5087823;27;20423;-84
2021/01/18 04:28:03;;;;;;;34.83;15.57;;;3.80;98.40;;;;;;5084909;27;20395;-84
2021/01/18 04:30:31;;;;;;;11.52;6.15;;;3.80;98.40;;;;;;5081303;28;20487;-84
2021/01/18 04:32:58;;;;;;;25.48;12.23;;;3.80;98.30;;;;;;5074726;27;20102;-84
2021/01/18 04:35:24;;;;;;;33.78;14.82;;;3.80;98.30;;;;;;5087470;27;20046;-83
2021/01/18 04:37:49;;;;;;;31.58;11.30;;;3.80;98.30;;;;;;5103323;27;20807;-83
2021/01/18 04:40:22;;;;;;;38.35;15.38;;;3.80;98.40;;;;;;5084393;28;20657;-83
2021/01/18 04:42:48;;;;;;;24.10;12.02;;;3.80;98.60;;;;;;5073332;27;20035;-82
2021/01/18 04:45:15;;;;;;;31.60;12.23;;;3.80;98.40;;;;;;5104703;27;20039;-83
2021/01/18 04:47:53;;;;;;;18.73;8.75;;;3.80;98.40;;;;;;5086829;27;20077;-83
2021/01/18 04:50:20;;;;;;;34.30;17.38;;;3.90;98.40;;;;;;5086643;27;20019;-83
2021/01/18 04:52:49;;;;;;;34.55;17.08;;;3.80;98.40;;;;;;5079310;27;20062;-83
2021/01/18 04:55:44;;;;;;;20.70;11.15;;;3.80;98.40;;;;;;5094769;27;20467;-84
2021/01/18 04:58:13;;;;;;;21.92;11.45;;;3.80;98.40;;;;;;5058608;27;20038;-84
2021/01/18 05:00:42;;;;;;;32.63;15.73;;;3.80;98.50;;;;;;5083146;27;20031;-82
2021/01/18 05:03:08;;;;;;;28.10;12.50;;;3.80;98.40;;;;;;5131278;27;20031;-83
2021/01/18 05:06:15;;;;;;;35.45;14.70;;;3.90;98.50;;;;;;5084121;27;20030;-82
2021/01/18 05:09:08;;;;;;;7.60;5.35;;;3.80;98.50;;;;;;5102349;27;20027;-83
2021/01/18 05:11:33;;;;;;;25.17;13.40;;;3.80;98.50;;;;;;5128634;27;20489;-83
2021/01/18 05:14:02;;;;;;;19.92;9.40;;;3.80;98.50;;;;;;5087804;27;20027;-83
2021/01/18 05:16:32;;;;;;;20.35;8.73;;;3.80;98.50;;;;;;5094299;27;20034;-85
2021/01/18 05:18:59;;;;;;;16.88;5.88;;;3.80;98.50;;;;;;5083397;27;20027;-84
2021/01/18 05:21:24;;;;;;;29.42;16.00;;;3.80;98.40;;;;;;5092237;27;20046;-84
2021/01/18 05:23:51;;;;;;;31.17;11.90;;;3.90;98.50;;;;;;5064088;27;20130;-83
2021/01/18 05:26:20;;;;;;;22.70;10.25;;;3.80;98.40;;;;;;5095499;27;20114;-84
2021/01/18 05:28:49;;;;;;;28.50;13.52;;;3.80;98.40;;;;;;5111188;27;20030;-83
2021/01/18 05:31:27;;;;;;;10.48;6.70;;;3.80;98.30;;;;;;5094349;27;20024;-83
2021/01/18 05:33:56;;;;;;;25.67;11.48;;;3.80;98.40;;;;;;5103339;27;20077;-83
2021/01/18 05:36:43;;;;;;;21.35;8.98;;;3.80;98.40;;;;;;5094328;27;20497;-83
2021/01/18 05:39:18;;;;;;;25.20;12.73;;;3.80;98.40;;;;;;5115319;27;20485;-82
2021/01/18 05:41:45;;;;;;;19.77;8.30;;;3.80;98.40;;;;;;5086419;27;20027;-83
2021/01/18 05:44:11;;;;;;;32.78;15.75;;;3.90;98.40;;;;;;5084794;27;20273;-83
2021/01/18 05:46:38;;;;;;;33.97;12.70;;;3.90;98.40;;;;;;5098137;27;20470;-83
2021/01/18 05:49:10;;;;;;;28.02;14.23;;;3.80;98.50;;;;;;5081288;27;20541;-83
2021/01/18 05:51:38;;;;;;;30.88;15.23;;;3.80;98.50;;;;;;5113079;27;20168;-83
2021/01/18 05:54:04;;;;;;;19.42;8.00;;;3.80;98.40;;;;;;5102961;27;20076;-83
2021/01/18 05:56:38;;;;;;;22.83;10.98;;;3.80;98.40;;;;;;5088822;27;20096;-83
2021/01/18 05:59:11;;;;;;;33.17;14.60;;;3.80;98.40;;;;;;5087021;27;20057;-83
2021/01/18 06:01:38;;;;;;;19.10;9.07;;;3.90;98.30;;;;;;5090294;27;20114;-85
2021/01/18 06:04:14;;;;;;;11.32;6.35;;;3.90;98.40;;;;;;5087672;28;20027;-83
2021/01/18 06:06:41;;;;;;;14.27;8.25;;;3.80;98.40;;;;;;5079029;27;20034;-84
2021/01/18 06:09:06;;;;;;;31.65;14.70;;;3.90;98.40;;;;;;5090505;27;20456;-84
2021/01/18 06:11:32;;;;;;;24.73;13.23;;;3.90;98.40;;;;;;5089429;27;20020;-84
2021/01/18 06:14:02;;;;;;;29.25;9.57;;;3.80;98.40;;;;;;5089763;27;20084;-84
2021/01/18 06:16:28;;;;;;;36.08;14.95;;;3.80;98.50;;;;;;5073404;27;20075;-83
2021/01/18 06:19:04;;;;;;;23.65;9.27;;;3.80;98.40;;;;;;5089738;27;20043;-82
2021/01/18 06:21:40;;;;;;;11.98;4.93;;;3.80;98.40;;;;;;5075038;27;20461;-84
2021/01/18 06:24:15;;;;;;;28.42;14.10;;;3.80;98.40;;;;;;5088154;27;20043;-83
2021/01/18 06:26:41;;;;;;;30.05;15.38;;;3.80;98.40;;;;;;5073963;28;20995;-84
2021/01/18 06:29:07;;;;;;;16.00;9.15;;;3.80;98.20;;;;;;5090331;28;20119;-84
2021/01/18 06:31:45;;;;;;;20.23;9.02;;;3.80;98.50;;;;;;5091339;27;20031;-83
2021/01/18 06:34:10;;;;;;;28.88;12.90;;;3.80;98.50;;;;;;5103041;27;20031;-83
2021/01/18 06:36:36;;;;;;;35.40;15.00;;;3.80;98.40;;;;;;5091064;28;20080;-84
2021/01/18 06:39:05;;;;;;;31.98;15.27;;;3.80;98.30;;;;;;5075045;28;20378;-84
2021/01/18 06:41:32;;;;;;;34.38;13.70;;;3.70;98.30;;;;;;5089569;28;20469;-84
2021/01/18 06:43:58;;;;;;;23.95;8.35;;;3.80;98.20;;;;;;5108724;28;20027;-83
2021/01/18 06:46:26;;;;;;;33.70;16.25;;;3.80;98.40;;;;;;5082638;28;20024;-83
2021/01/18 06:48:52;;;;;;;32.33;13.05;;;3.70;98.30;;;;;;5077573;28;20016;-83
2021/01/18 06:51:25;;;;;;;13.50;6.93;;;3.70;98.40;;;;;;5092270;28;20038;-83
2021/01/18 06:53:52;;;;;;;18.55;9.75;;;3.70;98.40;;;;;;5090354;28;20051;-83
2021/01/18 06:56:18;;;;;;;26.40;7.50;;;3.70;98.40;;;;;;5108068;28;20058;-83
2021/01/18 06:59:02;;;;;;;17.80;8.02;;;3.70;98.40;;;;;;5104452;28;20109;-84
2021/01/18 07:01:33;;;;;;;15.70;7.80;;;3.70;98.50;;;;;;5102522;28;20048;-84
2021/01/18 07:04:09;;;;;;;27.38;12.52;;;3.70;98.50;;;;;;5090029;28;20395;-84
2021/01/18 07:06:38;;;;;;;24.98;11.02;;;3.70;98.40;;;;;;5073886;28;20417;-83
2021/01/18 07:09:08;;;;;;;16.80;9.50;;;3.70;98.40;;;;;;5085753;28;20388;-85
2021/01/18 07:11:33;;;;;;;31.55;12.52;;;3.70;98.40;;;;;;5089152;28;20029;-84
2021/01/18 07:14:01;;;;;;;38.70;16.50;;;3.70;98.50;;;;;;5090605;28;20046;-84
2021/01/18 07:16:27;;;;;;;36.63;14.10;;;3.70;98.50;;;;;;5108741;28;20027;-84
2021/01/18 07:18:55;;;;;;;19.27;7.45;;;3.70;98.60;;;;;;5084280;28;20042;-85
2021/01/18 07:21:21;;;;;;;15.43;8.43;;;3.70;98.70;;;;;;5081614;28;20394;-83
2021/01/18 07:23:58;;;;;;;16.77;9.27;;;3.70;98.60;;;;;;5087233;28;20047;-86
2021/01/18 07:27:01;;;;;;;26.30;10.30;;;3.70;98.70;;;;;;5084655;28;20041;-85
2021/01/18 07:29:26;;;;;;;12.10;6.32;;;3.70;98.60;;;;;;5082022;28;20087;-85
2021/01/18 07:31:55;;;;;;;33.35;15.45;;;3.80;98.70;;;;;;5090955;28;20027;-85
2021/01/18 07:34:24;;;;;;;26.73;13.00;;;3.70;98.70;;;;;;5088297;28;20486;-84
2021/01/18 07:36:51;;;;;;;34.78;13.45;;;3.70;98.70;;;;;;5076061;28;20072;-84
2021/01/18 07:39:31;;;;;;;29.60;14.63;;;3.70;98.80;;;;;;5102919;28;20427;-85
2021/01/18 07:41:56;;;;;;;14.95;8.18;;;3.80;98.80;;;;;;5072651;28;20030;-84
2021/01/18 07:44:36;;;;;;;38.30;17.60;;;3.80;98.80;;;;;;5090916;27;20023;-84
2021/01/18 07:47:04;;;;;;;42.67;10.82;;;3.80;98.80;;;;;;5080739;27;20106;-84
2021/01/18 07:49:35;;;;;;;24.65;12.02;;;3.80;98.70;;;;;;5091695;27;20039;-84
2021/01/18 07:52:14;;;;;;;22.52;11.95;;;3.80;98.80;;;;;;5092493;27;20509;-84
2021/01/18 07:54:39;;;;;;;32.60;16.10;;;3.80;99.10;;;;;;5092224;27;20027;-85
2021/01/18 07:57:30;;;;;;;28.98;14.48;;;3.80;98.70;;;;;;5091703;27;20042;-85
2021/01/18 08:00:23;;;;;;;25.27;7.18;;;3.90;98.60;;;;;;5108750;27;20027;-84
2021/01/18 08:02:53;;;;;;;22.75;9.52;;;3.90;98.70;;;;;;5108501;27;20455;-84
2021/01/18 08:05:35;;;;;;;22.67;12.85;;;3.90;98.80;;;;;;5098869;27;20023;-85
2021/01/18 08:08:16;;;;;;;20.75;9.93;;;3.90;98.80;;;;;;5102582;27;20448;-84
2021/01/18 08:11:02;;;;;;;34.65;13.05;;;3.90;98.70;;;;;;5090023;27;20102;-84
2021/01/18 08:13:42;;;;;;;22.55;9.57;;;3.90;98.70;;;;;;5069380;27;20049;-83
2021/01/18 08:16:43;;;;;;;20.40;9.15;;;3.90;98.70;;;;;;5091849;27;20066;-84
2021/01/18 08:19:13;;;;;;;28.77;11.05;;;3.90;98.70;;;;;;5028401;28;20045;-83
2021/01/18 08:21:41;;;;;;;24.48;13.10;;;3.90;98.60;;;;;;5092216;27;20482;-82
2021/01/18 08:24:07;;;;;;;12.75;5.32;;;3.90;98.60;;;;;;5092735;27;20122;-83
2021/01/18 08:26:59;;;;;;;22.42;8.98;;;3.90;98.60;;;;;;5076949;27;20038;-82
2021/01/18 08:29:44;;;;;;;34.15;14.70;;;3.90;98.70;;;;;;5090994;27;20086;-82
2021/01/18 08:32:31;;;;;;;16.98;6.80;;;4.00;98.70;;;;;;5106426;27;20446;-82
2021/01/18 08:34:58;;;;;;;22.80;9.55;;;4.00;98.60;;;;;;5120100;27;20035;-83
2021/01/18 08:37:24;;;;;;;37.00;13.73;;;4.00;98.70;;;;;;5089041;27;20379;-83
2021/01/18 08:40:00;;;;;;;35.22;11.93;;;4.00;98.70;;;;;;5075662;27;20047;-82
2021/01/18 08:42:26;;;;;;;21.60;8.00;;;4.00;98.70;;;;;;5091017;27;20031;-83
2021/01/18 08:45:21;;;;;;;28.48;13.25;;;4.10;98.70;;;;;;5108589;27;20059;-83
2021/01/18 08:47:58;;;;;;;33.17;11.57;;;4.10;98.70;;;;;;5092432;27;20035;-83
2021/01/18 08:50:35;;;;;;;29.00;13.30;;;4.20;98.70;;;;;;5089934;27;20102;-83
2021/01/18 08:53:02;;;;;;;22.80;8.52;;;4.20;98.70;;;;;;5077525;27;20038;-82
2021/01/18 08:55:28;;;;;;;33.65;12.73;;;4.20;98.60;;;;;;5075053;27;20273;-82
2021/01/18 08:57:55;;;;;;;30.30;14.07;;;4.30;98.70;;;;;;5109396;27;20077;-82
2021/01/18 09:00:20;;;;;;;23.67;9.02;;;4.30;98.60;;;;;;5092209;27;20031;-81
2021/01/18 09:02:47;;;;;;;30.05;12.50;;;4.30;98.60;;;;;;5077398;27;20110;-82
2021/01/18 09:05:22;;;;;;;11.18;4.25;;;4.30;98.50;;;;;;5090745;27;20055;-82
2021/01/18 09:07:48;;;;;;;24.13;10.25;;;4.30;98.40;;;;;;5092628;27;20023;-82
2021/01/18 09:10:18;;;;;;;19.40;8.73;;;4.30;98.50;;;;;;5089999;27;20107;-82
2021/01/18 09:12:44;;;;;;;27.42;9.70;;;4.30;98.40;;;;;;5071646;27;20411;-83
2021/01/18 09:15:10;;;;;;;14.45;4.93;;;4.30;98.40;;;;;;5087978;27;20031;-82
2021/01/18 09:17:36;;;;;;;27.60;9.68;;;4.40;98.50;;;;;;5087848;27;20019;-82
2021/01/18 09:20:03;;;;;;;22.75;8.70;;;4.40;98.40;;;;;;5101831;27;20101;-82
2021/01/18 09:22:29;;;;;;;20.40;7.10;;;4.40;98.50;;;;;;5093901;27;20409;-82
2021/01/18 09:24:54;;;;;;;35.75;11.82;;;4.40;98.50;;;;;;5092237;27;20413;-82
2021/01/18 09:27:20;;;;;;;36.00;16.70;;;4.40;98.50;;;;;;5091393;27;20027;-82
2021/01/18 09:29:59;;;;;;;25.23;9.70;;;4.40;98.40;;;;;;5091910;27;20475;-83
2021/01/18 09:32:25;;;;;;;27.13;9.85;;;4.40;98.40;;;;;;5109517;27;20538;-82
2021/01/18 09:35:02;;;;;;;26.33;8.45;;;4.50;98.50;;;;;;5091881;27;20023;-82
2021/01/18 09:37:27;;;;;;;39.15;13.65;;;4.50;98.40;;;;;;5089428;27;20034;-83
2021/01/18 09:39:53;;;;;;;20.60;10.93;;;4.50;98.50;;;;;;5106376;27;20534;-84
2021/01/18 09:42:20;;;;;;;30.00;12.35;;;4.50;98.30;;;;;;5074454;27;20031;-83
2021/01/18 09:44:46;;;;;;;29.05;11.60;;;4.50;98.40;;;;;;5082273;27;20818;-82
2021/01/18 09:47:11;;;;;;;27.58;12.38;;;4.50;98.40;;;;;;5074918;27;20027;-82
2021/01/18 09:49:37;;;;;;;25.95;10.00;;;4.60;98.50;;;;;;5090842;27;20041;-82
2021/01/18 09:52:03;;;;;;;27.15;11.57;;;4.60;98.50;;;;;;5070700;27;20034;-83
2021/01/18 09:54:29;;;;;;;29.75;11.23;;;4.60;98.40;;;;;;5090685;27;20065;-82
2021/01/18 09:56:54;;;;;;;27.40;11.00;;;4.70;98.30;;;;;;5075073;27;20027;-83
2021/01/18 09:59:20;;;;;;;24.40;9.90;;;4.70;98.30;;;;;;5073395;27;20027;-83
2021/01/18 10:01:48;;;;;;;28.40;11.98;;;4.70;98.20;;;;;;5089242;27;20346;-82
2021/01/18 10:04:21;;;;;;;18.63;8.23;;;4.80;98.20;;;;;;5072557;27;20042;-81
2021/01/18 10:06:46;;;;;;;17.70;8.05;;;4.90;98.20;;;;;;5089872;28;20032;-83
2021/01/18 10:09:13;;;;;;;20.20;6.95;;;4.70;98.10;;;;;;5090646;27;20037;-83
2021/01/18 10:11:46;;;;;;;32.92;13.18;;;4.80;98.10;;;;;;5089911;27;20129;-82
2021/01/18 10:14:22;;;;;;;15.90;9.00;;;4.80;98.20;;;;;;5074067;27;20398;-83
2021/01/18 10:17:02;;;;;;;20.05;7.22;;;4.80;98.10;;;;;;5074083;27;20114;-84
2021/01/18 10:19:28;;;;;;;28.60;9.93;;;4.90;98.10;;;;;;5070564;28;20035;-83
2021/01/18 10:21:54;;;;;;;10.85;5.15;;;4.90;98.10;;;;;;5075453;27;20046;-83
2021/01/18 10:24:35;;;;;;;17.50;8.00;;;4.90;97.90;;;;;;5091334;27;20065;-82
2021/01/18 10:27:15;;;;;;;24.40;10.30;;;4.90;98.00;;;;;;5073311;27;20323;-83
2021/01/18 10:29:45;;;;;;;32.70;11.02;;;5.00;97.80;;;;;;5091002;27;20486;-83
2021/01/18 10:32:10;;;;;;;12.38;5.90;;;5.10;97.90;;;;;;5091067;27;20119;-84
2021/01/18 10:34:36;;;;;;;14.80;6.57;;;5.10;97.70;;;;;;5073329;27;20168;-84
2021/01/18 10:37:15;;;;;;;10.60;4.65;;;5.00;97.70;;;;;;5075448;27;20031;-83
2021/01/18 10:39:41;;;;;;;15.88;7.18;;;5.00;97.80;;;;;;5090168;28;20031;-84
2021/01/18 10:42:25;;;;;;;10.88;5.55;;;5.00;97.80;;;;;;5073677;28;20080;-83
2021/01/18 10:44:54;;;;;;;26.70;10.82;;;5.00;97.60;;;;;;5086508;28;20371;-83
2021/01/18 10:47:27;;;;;;;24.00;8.85;;;5.00;97.60;;;;;;5087848;28;20031;-83
2021/01/18 10:49:59;;;;;;;31.40;9.50;;;5.10;97.70;;;;;;5094270;28;20039;-83
2021/01/18 10:52:32;;;;;;;34.60;12.55;;;5.10;97.80;;;;;;5106090;28;20038;-83
2021/01/18 10:55:02;;;;;;;20.63;6.75;;;5.10;97.80;;;;;;5089034;28;20055;-82
2021/01/18 10:57:27;;;;;;;22.52;8.18;;;5.10;97.70;;;;;;5078612;28;20028;-82
2021/01/18 11:00:09;;;;;;;12.30;6.05;;;5.10;97.80;;;;;;5073077;28;20031;-83
2021/01/18 11:02:36;;;;;;;12.95;5.88;;;5.10;97.60;;;;;;5089466;28;20487;-83
2021/01/18 11:05:02;;;;;;;16.40;7.15;;;5.10;97.40;;;;;;5089570;28;20027;-82
2021/01/18 11:07:27;;;;;;;25.45;8.25;;;5.20;97.60;;;;;;5108072;28;20027;-82
2021/01/18 11:09:59;;;;;;;19.50;6.88;;;5.10;97.20;;;;;;5080063;28;20110;-83
2021/01/18 11:12:36;;;;;;;16.98;6.47;;;5.20;97.30;;;;;;5087203;28;20068;-83
2021/01/18 11:15:06;;;;;;;25.75;7.72;;;5.20;97.30;;;;;;5071911;28;20504;-82
2021/01/18 11:17:32;;;;;;;12.52;4.38;;;5.30;97.10;;;;;;5073770;27;20047;-82
2021/01/18 11:19:57;;;;;;;12.05;5.22;;;5.30;97.20;;;;;;5088571;27;20358;-82
2021/01/18 11:22:23;;;;;;;24.35;9.02;;;5.30;97.10;;;;;;5091798;27;20077;-82
2021/01/18 11:24:49;;;;;;;11.10;5.95;;;5.40;97.20;;;;;;5092802;27;20152;-81
2021/01/18 11:27:14;;;;;;;9.05;5.68;;;5.60;97.10;;;;;;5078125;27;20027;-82
2021/01/18 11:29:40;;;;;;;16.55;5.70;;;5.70;97.50;;;;;;5091694;27;20490;-82
2021/01/18 11:32:05;;;;;;;13.13;5.00;;;5.80;96.80;;;;;;5091421;27;20049;-82
2021/01/18 11:34:33;;;;;;;9.18;4.22;;;5.80;96.80;;;;;;5093796;27;20039;-82
2021/01/18 11:37:03;;;;;;;15.27;5.50;;;5.90;96.70;;;;;;5076498;27;20024;-81
2021/01/18 11:39:29;;;;;;;15.63;6.82;;;6.00;96.50;;;;;;5087248;27;20030;-82
2021/01/18 11:41:54;;;;;;;21.52;6.93;;;6.00;96.40;;;;;;5078498;27;20050;-83
2021/01/18 11:44:20;;;;;;;14.23;5.65;;;5.90;96.00;;;;;;5090088;27;21245;-82
2021/01/18 11:46:46;;;;;;;11.70;5.00;;;6.00;96.30;;;;;;5094204;27;20093;-82
2021/01/18 11:49:11;;;;;;;6.15;3.13;;;6.00;96.10;;;;;;5094741;27;20104;-85
2021/01/18 11:51:37;;;;;;;16.33;5.65;;;6.00;96.20;;;;;;5092625;27;20023;-82
2021/01/18 11:54:02;;;;;;;16.77;6.35;;;6.00;95.70;;;;;;5084095;27;20027;-82
2021/01/18 11:56:31;;;;;;;14.90;6.25;;;6.00;95.80;;;;;;5111553;27;20479;-80
2021/01/18 11:58:57;;;;;;;14.52;5.43;;;5.90;95.60;;;;;;5077684;27;20043;-81
2021/01/18 12:01:23;;;;;;;8.95;3.97;;;5.90;95.90;;;;;;5095068;27;20037;-81
2021/01/18 12:03:48;;;;;;;12.13;3.67;;;6.00;95.70;;;;;;5093623;27;20493;-82
2021/01/18 12:06:14;;;;;;;13.93;4.90;;;5.90;95.60;;;;;;5091274;27;20029;-81
2021/01/18 12:08:40;;;;;;;15.15;4.95;;;6.00;95.70;;;;;;5079056;27;20038;-81
2021/01/18 12:11:06;;;;;;;13.68;5.28;;;6.00;96.10;;;;;;5109062;27;20068;-84
2021/01/18 12:13:31;;;;;;;18.77;2.28;;;6.00;95.10;;;;;;5076895;27;20019;-81
2021/01/18 12:15:57;;;;;;;11.40;4.68;;;6.00;95.10;;;;;;5089620;27;20451;-84
2021/01/18 12:18:24;;;;;;;16.60;4.70;;;6.10;95.50;;;;;;5078245;27;20077;-82
2021/01/18 12:20:49;;;;;;;10.38;3.90;;;6.10;95.40;;;;;;5081255;27;20050;-82
2021/01/18 12:23:18;;;;;;;9.45;3.75;;;6.00;95.10;;;;;;5108449;27;20363;-82
2021/01/18 12:25:46;;;;;;;11.10;3.15;;;6.10;95.30;;;;;;5092832;27;20433;-83
2021/01/18 12:28:11;;;;;;;4.90;1.88;;;6.00;95.40;;;;;;5091574;27;20502;-82
2021/01/18 12:30:37;;;;;;;14.15;4.68;;;6.00;94.80;;;;;;5075849;27;20027;-81
2021/01/18 12:33:03;;;;;;;13.82;3.58;;;6.00;95.00;;;;;;5095299;27;20114;-81
2021/01/18 12:35:29;;;;;;;17.65;4.55;;;6.00;95.00;;;;;;5092511;27;20457;-82
2021/01/18 12:37:54;;;;;;;12.77;4.57;;;6.00;95.00;;;;;;5091877;27;20106;-82
2021/01/18 12:40:20;;;;;;;10.10;3.47;;;6.00;94.90;;;;;;5109556;27;20486;-80
2021/01/18 12:42:47;;;;;;;21.90;4.53;;;6.00;95.00;;;;;;5093713;27;20470;-82
2021/01/18 12:45:13;;;;;;;13.40;4.63;;;6.00;94.80;;;;;;5084055;27;20401;-81
2021/01/18 12:47:39;;;;;;;8.45;2.90;;;6.00;95.10;;;;;;5088123;27;20023;-82
2021/01/18 12:50:06;;;;;;;9.18;3.33;;;6.10;95.00;;;;;;5090961;27;20104;-81
2021/01/18 12:52:31;;;;;;;18.55;4.65;;;6.20;95.00;;;;;;5095479;27;20164;-81
2021/01/18 12:54:57;;;;;;;9.60;2.78;;;6.30;95.70;;;;;;5109003;27;20031;-81
2021/01/18 12:57:22;;;;;;;9.40;3.03;;;6.20;95.00;;;;;;5092835;27;20050;-83